Time;durP1;ratioP1;P1;durP2;ratioP2;P2;SDS_P1;SDS_P2;PMS_P1;PMS_P2;Temp;Humidity;BMP_temperature;BMP_pressure;BME280_temperature;BME280_humidity;BME280_pressure;Samples;Min_cycle;Max_cycle;Signal;HPM_P1;HPM_P2
2022/12/03 00:02:02;;;;;;;40.28;21.60;;;4.30;99.90;;;;;;5026799;28;20060;-73
2022/12/03 00:04:28;;;;;;;38.67;19.98;;;4.30;99.90;;;;;;5022493;28;20060;-74
2022/12/03 00:06:53;;;;;;;39.70;20.77;;;4.30;99.90;;;;;;5023154;28;20424;-73
2022/12/03 00:09:19;;;;;;;41.83;20.50;;;4.40;99.90;;;;;;5022123;28;20535;-70
2022/12/03 00:11:45;;;;;;;35.95;19.45;;;4.40;99.90;;;;;;5023799;28;20030;-70
2022/12/03 00:14:10;;;;;;;40.42;21.05;;;4.30;99.90;;;;;;5028281;28;20435;-70
2022/12/03 00:16:36;;;;;;;41.05;20.88;;;4.30;99.90;;;;;;5022773;28;20033;-70
2022/12/03 00:19:01;;;;;;;37.90;20.23;;;4.40;99.90;;;;;;5023888;28;20038;-70
2022/12/03 00:21:27;;;;;;;41.28;21.88;;;4.50;99.90;;;;;;5027430;28;20343;-69
2022/12/03 00:23:53;;;;;;;42.38;21.92;;;4.50;99.90;;;;;;5022245;28;20056;-69
2022/12/03 00:26:18;;;;;;;41.58;21.77;;;4.50;99.90;;;;;;5026575;28;20064;-70
2022/12/03 00:28:44;;;;;;;45.00;21.58;;;4.40;99.90;;;;;;5027946;28;20075;-70
2022/12/03 00:31:09;;;;;;;40.78;21.90;;;4.40;99.90;;;;;;5028097;28;20446;-71
2022/12/03 00:33:35;;;;;;;43.80;21.33;;;4.40;99.90;;;;;;5028697;28;20032;-70
2022/12/03 00:36:01;;;;;;;38.40;19.80;;;4.50;99.90;;;;;;5026708;28;20018;-70
2022/12/03 00:38:26;;;;;;;38.80;20.98;;;4.40;99.90;;;;;;5023481;28;20367;-70
2022/12/03 00:40:52;;;;;;;39.88;20.25;;;4.40;99.90;;;;;;5024655;28;20136;-70
2022/12/03 00:43:17;;;;;;;39.42;20.48;;;4.40;99.90;;;;;;5024549;28;20017;-70
2022/12/03 00:45:43;;;;;;;43.58;20.70;;;4.40;99.90;;;;;;5023219;28;20111;-70
2022/12/03 00:48:08;;;;;;;38.22;20.77;;;4.50;99.90;;;;;;5026992;28;20409;-70
2022/12/03 00:50:34;;;;;;;39.47;20.80;;;4.50;99.90;;;;;;5026392;28;20036;-71
2022/12/03 00:53:00;;;;;;;38.90;21.15;;;4.50;99.90;;;;;;5028108;28;20122;-70
2022/12/03 00:55:25;;;;;;;41.33;22.17;;;4.50;99.90;;;;;;5026508;28;20017;-70
2022/12/03 00:57:51;;;;;;;37.40;20.15;;;4.50;99.90;;;;;;5029981;28;20393;-70
2022/12/03 01:00:16;;;;;;;40.83;21.63;;;4.40;99.90;;;;;;5031889;28;20469;-70
2022/12/03 01:02:42;;;;;;;39.05;20.25;;;4.40;99.90;;;;;;5029996;28;20115;-70
2022/12/03 01:05:08;;;;;;;40.85;21.52;;;4.50;99.90;;;;;;5029067;28;20017;-70
2022/12/03 01:07:35;;;;;;;40.70;20.10;;;4.50;99.90;;;;;;5025900;28;20044;-70
2022/12/03 01:10:01;;;;;;;37.28;20.60;;;4.50;99.90;;;;;;5030502;28;20028;-70
2022/12/03 01:12:26;;;;;;;38.67;20.77;;;4.50;99.90;;;;;;5026896;28;20429;-71
2022/12/03 01:14:52;;;;;;;40.88;20.73;;;4.60;99.90;;;;;;5028704;28;20041;-70
2022/12/03 01:17:18;;;;;;;38.85;19.88;;;4.60;99.90;;;;;;5029073;28;20119;-70
2022/12/03 01:19:43;;;;;;;40.17;21.23;;;4.60;99.90;;;;;;5027028;28;20025;-71
2022/12/03 01:22:09;;;;;;;39.60;20.55;;;4.60;99.90;;;;;;5027379;28;20021;-70
2022/12/03 01:24:34;;;;;;;41.90;20.55;;;4.50;99.90;;;;;;5033114;28;20026;-70
2022/12/03 01:27:00;;;;;;;41.22;21.08;;;4.50;99.90;;;;;;5023304;28;20030;-70
2022/12/03 01:29:26;;;;;;;44.88;21.27;;;4.40;99.90;;;;;;5029472;28;20036;-72
2022/12/03 01:34:36;;;;;;;43.03;20.95;;;4.50;99.90;;;;;;5030639;28;20053;-73
2022/12/03 01:37:01;;;;;;;40.15;21.23;;;4.40;99.90;;;;;;5033088;28;20029;-70
2022/12/03 01:39:27;;;;;;;44.45;22.17;;;4.40;99.90;;;;;;5024596;28;20033;-73
2022/12/03 01:41:53;;;;;;;45.22;23.10;;;4.50;99.90;;;;;;5032705;28;20125;-70
2022/12/03 01:44:23;;;;;;;43.83;22.83;;;4.40;99.90;;;;;;5035033;28;20485;-70
2022/12/03 01:46:50;;;;;;;41.17;21.98;;;4.40;99.90;;;;;;5034728;28;20041;-71
2022/12/03 01:49:20;;;;;;;42.58;22.67;;;4.50;99.90;;;;;;5033932;28;20085;-72
2022/12/03 01:51:47;;;;;;;43.92;22.58;;;4.40;99.90;;;;;;5030126;28;20033;-73
2022/12/03 01:54:19;;;;;;;45.63;23.08;;;4.60;99.90;;;;;;5026750;28;20024;-73
2022/12/03 01:56:46;;;;;;;41.67;23.13;;;4.60;99.90;;;;;;5030378;28;20034;-72
2022/12/03 01:59:20;;;;;;;43.45;22.23;;;4.60;99.90;;;;;;5032863;28;20029;-72
2022/12/03 02:01:45;;;;;;;54.60;23.45;;;4.50;99.90;;;;;;5026727;28;20029;-72
2022/12/03 02:04:13;;;;;;;43.15;22.58;;;4.50;99.90;;;;;;5029403;28;20466;-72
2022/12/03 02:06:40;;;;;;;38.20;19.77;;;4.50;99.90;;;;;;5030001;28;20553;-70
2022/12/03 02:09:08;;;;;;;39.70;20.40;;;4.50;99.90;;;;;;5032109;28;20123;-72
2022/12/03 02:11:38;;;;;;;39.22;21.25;;;4.40;99.90;;;;;;5034336;28;20127;-70
2022/12/03 02:14:11;;;;;;;43.72;22.23;;;4.40;99.90;;;;;;5029453;28;20117;-70
2022/12/03 02:16:37;;;;;;;45.70;23.85;;;4.50;99.90;;;;;;5032838;28;20465;-70
2022/12/03 02:19:28;;;;;;;38.92;21.38;;;4.60;99.90;;;;;;5034171;28;20477;-71
2022/12/03 02:22:34;;;;;;;41.40;22.25;;;4.40;99.90;;;;;;5031831;28;20371;-70
2022/12/03 02:25:21;;;;;;;42.70;21.67;;;4.50;99.90;;;;;;5022255;28;20041;-72
2022/12/03 02:27:47;;;;;;;41.92;21.98;;;4.50;99.90;;;;;;5030580;28;20430;-72
2022/12/03 02:30:18;;;;;;;39.83;20.25;;;4.50;99.90;;;;;;5030059;28;20100;-70
2022/12/03 02:32:43;;;;;;;40.20;22.70;;;4.60;99.90;;;;;;5030708;28;20342;-71
2022/12/03 02:35:17;;;;;;;46.70;22.95;;;4.60;99.90;;;;;;5036255;28;20071;-70
2022/12/03 02:37:45;;;;;;;42.55;22.77;;;4.50;99.90;;;;;;5033571;28;20042;-71
2022/12/03 02:40:19;;;;;;;46.47;22.08;;;4.60;99.90;;;;;;5033436;28;20026;-71
2022/12/03 02:42:46;;;;;;;42.03;21.63;;;4.50;99.90;;;;;;5027380;28;20030;-70
2022/12/03 02:45:34;;;;;;;41.22;22.25;;;4.40;99.90;;;;;;5029156;28;20034;-70
2022/12/03 02:48:05;;;;;;;39.55;20.92;;;4.50;99.90;;;;;;5033085;28;20025;-71
2022/12/03 02:50:34;;;;;;;42.50;22.70;;;4.50;99.90;;;;;;5034760;28;20021;-73
2022/12/03 02:53:03;;;;;;;40.42;21.15;;;4.50;99.90;;;;;;5032009;28;20111;-72
2022/12/03 02:55:30;;;;;;;37.22;20.48;;;4.50;99.90;;;;;;5027815;28;20026;-71
2022/12/03 02:57:56;;;;;;;48.13;22.63;;;4.40;99.90;;;;;;5032176;28;20497;-73
2022/12/03 03:00:22;;;;;;;39.60;21.90;;;4.50;99.90;;;;;;5024398;28;20100;-70
2022/12/03 03:02:49;;;;;;;38.97;20.80;;;4.50;99.90;;;;;;5030081;28;20129;-73
2022/12/03 03:05:20;;;;;;;39.38;21.15;;;4.50;99.90;;;;;;5029314;28;20025;-72
2022/12/03 03:07:46;;;;;;;40.30;20.95;;;4.50;99.90;;;;;;5032335;28;20152;-73
2022/12/03 03:10:15;;;;;;;48.63;22.52;;;4.50;99.90;;;;;;5034984;28;20026;-71
2022/12/03 03:12:41;;;;;;;41.80;22.15;;;4.60;99.90;;;;;;5031558;28;20021;-73
2022/12/03 03:15:08;;;;;;;41.65;21.58;;;4.50;99.90;;;;;;5033532;28;20606;-72
2022/12/03 03:17:34;;;;;;;41.90;22.17;;;4.50;99.90;;;;;;5031528;28;20091;-71
2022/12/03 03:20:01;;;;;;;43.55;22.33;;;4.60;99.90;;;;;;5032328;28;20114;-72
2022/12/03 03:22:37;;;;;;;45.65;21.98;;;4.50;99.90;;;;;;5029539;28;20035;-71
2022/12/03 03:25:05;;;;;;;43.97;22.30;;;4.50;99.90;;;;;;5027798;28;20481;-72
2022/12/03 03:27:31;;;;;;;45.30;23.17;;;4.50;99.90;;;;;;5030883;28;20017;-70
2022/12/03 03:29:57;;;;;;;43.65;21.58;;;4.60;99.90;;;;;;5030891;28;20060;-72
2022/12/03 03:32:25;;;;;;;42.53;21.95;;;4.60;99.90;;;;;;5031671;28;20026;-73
2022/12/03 03:34:51;;;;;;;41.75;21.15;;;4.60;99.90;;;;;;5027573;28;20458;-69
2022/12/03 03:37:16;;;;;;;41.00;22.05;;;4.60;99.90;;;;;;5032374;28;20033;-70
2022/12/03 03:39:42;;;;;;;45.03;22.98;;;4.60;99.90;;;;;;5034915;28;20018;-70
2022/12/03 03:42:08;;;;;;;46.88;23.50;;;4.60;99.90;;;;;;5032615;28;20032;-71
2022/12/03 03:44:34;;;;;;;40.65;22.55;;;4.70;99.90;;;;;;5032709;28;20470;-70
2022/12/03 03:47:00;;;;;;;43.80;22.85;;;4.70;99.90;;;;;;5027609;28;20063;-70
2022/12/03 03:49:26;;;;;;;42.08;23.00;;;4.50;99.90;;;;;;5027423;28;20022;-69
2022/12/03 03:51:53;;;;;;;43.65;21.60;;;4.60;99.90;;;;;;5033061;28;20410;-70
2022/12/03 03:54:18;;;;;;;42.67;22.20;;;4.50;99.90;;;;;;5031399;28;20021;-69
2022/12/03 03:56:44;;;;;;;45.35;22.20;;;4.60;99.90;;;;;;5032252;28;20531;-69
2022/12/03 03:59:11;;;;;;;44.40;22.60;;;4.60;99.90;;;;;;5031775;28;20025;-69
2022/12/03 04:01:37;;;;;;;45.47;21.92;;;4.60;99.90;;;;;;5062964;28;20017;-69
2022/12/03 04:04:21;;;;;;;48.25;22.27;;;4.50;99.90;;;;;;5030399;28;20497;-69
2022/12/03 04:06:47;;;;;;;43.22;22.38;;;4.50;99.90;;;;;;5029447;28;20474;-69
2022/12/03 04:09:13;;;;;;;42.88;22.55;;;4.60;99.90;;;;;;5033139;28;20030;-69
2022/12/03 04:14:22;;;;;;;44.97;23.50;;;4.60;99.90;;;;;;5027339;28;20037;-69
2022/12/03 04:16:48;;;;;;;48.72;23.73;;;4.60;99.90;;;;;;5026826;28;20029;-69
2022/12/03 04:19:13;;;;;;;48.92;23.77;;;4.60;99.90;;;;;;5033229;28;20026;-69
2022/12/03 04:24:23;;;;;;;47.03;23.17;;;4.60;99.90;;;;;;5031905;28;20059;-69
2022/12/03 04:29:32;;;;;;;45.63;23.38;;;4.60;99.90;;;;;;5030245;28;20083;-69
2022/12/03 04:37:26;;;;;;;50.88;25.15;;;4.60;99.90;;;;;;5028614;28;20037;-69
2022/12/03 04:39:52;;;;;;;49.90;24.27;;;4.70;99.90;;;;;;5031966;28;20021;-70
2022/12/03 04:42:17;;;;;;;48.17;23.90;;;4.60;99.90;;;;;;5028800;28;20030;-69
2022/12/03 04:44:43;;;;;;;45.53;23.60;;;4.60;99.90;;;;;;5026409;28;20018;-69
2022/12/03 04:47:14;;;;;;;51.42;24.83;;;4.60;99.90;;;;;;5029290;28;20105;-69
2022/12/03 04:49:42;;;;;;;47.67;25.15;;;4.60;99.90;;;;;;5029873;28;20052;-69
2022/12/03 04:52:09;;;;;;;52.13;25.95;;;4.70;99.90;;;;;;5030424;28;20022;-69
2022/12/03 04:54:35;;;;;;;51.65;26.15;;;4.70;99.90;;;;;;5030859;28;20049;-69
2022/12/03 04:57:01;;;;;;;50.67;26.35;;;4.70;99.90;;;;;;5022523;28;20030;-68
2022/12/03 04:59:26;;;;;;;51.75;27.08;;;4.60;99.90;;;;;;5029421;28;20458;-69
2022/12/03 05:01:52;;;;;;;53.63;26.75;;;4.60;99.90;;;;;;5027799;28;20036;-70
2022/12/03 05:04:18;;;;;;;50.47;25.33;;;4.50;99.90;;;;;;5031160;28;20009;-69
2022/12/03 05:06:44;;;;;;;52.20;24.58;;;4.60;99.90;;;;;;5027094;28;20068;-69
2022/12/03 05:09:10;;;;;;;54.30;25.95;;;4.60;99.90;;;;;;5024382;28;20112;-69
2022/12/03 05:11:35;;;;;;;51.38;26.42;;;4.50;99.90;;;;;;5028607;28;20080;-69
2022/12/03 05:14:01;;;;;;;53.58;25.92;;;4.50;99.90;;;;;;5030962;28;20037;-69
2022/12/03 05:16:27;;;;;;;52.72;25.70;;;4.50;99.90;;;;;;5026104;28;20029;-70
2022/12/03 05:18:52;;;;;;;53.85;27.17;;;4.50;99.90;;;;;;5031235;28;20787;-69
2022/12/03 05:21:18;;;;;;;50.20;24.55;;;4.50;99.90;;;;;;5030866;28;20018;-69
2022/12/03 05:23:43;;;;;;;53.10;26.48;;;4.60;99.90;;;;;;5027272;28;20686;-69
2022/12/03 05:26:10;;;;;;;58.30;27.35;;;4.60;99.90;;;;;;5029097;28;20034;-69
2022/12/03 05:28:35;;;;;;;57.58;28.52;;;4.40;99.90;;;;;;5033647;28;20370;-70
2022/12/03 05:31:01;;;;;;;56.63;29.02;;;4.40;99.90;;;;;;5030120;28;20029;-69
2022/12/03 05:33:26;;;;;;;59.20;28.83;;;4.30;99.90;;;;;;5025645;28;20079;-69
2022/12/03 05:35:52;;;;;;;54.42;27.20;;;4.40;99.90;;;;;;5030322;28;20037;-69
2022/12/03 05:38:18;;;;;;;55.55;27.65;;;4.40;99.90;;;;;;5024578;28;20083;-69
2022/12/03 05:40:43;;;;;;;59.70;28.42;;;4.40;99.90;;;;;;5026938;28;20113;-69
2022/12/03 05:43:09;;;;;;;55.80;27.17;;;4.30;99.90;;;;;;5031076;28;20025;-69
2022/12/03 05:45:36;;;;;;;56.03;28.15;;;4.30;99.90;;;;;;5029520;28;20068;-69
2022/12/03 05:48:03;;;;;;;58.40;29.35;;;4.40;99.90;;;;;;5031201;28;20025;-69
2022/12/03 05:50:32;;;;;;;55.75;28.83;;;4.50;99.90;;;;;;5035435;28;20352;-69
2022/12/03 05:52:58;;;;;;;61.40;27.55;;;4.60;99.90;;;;;;5034747;28;20473;-69
2022/12/03 05:55:24;;;;;;;54.95;26.90;;;4.60;99.90;;;;;;5034915;28;20356;-68
2022/12/03 05:57:50;;;;;;;53.35;26.85;;;4.50;99.90;;;;;;5033027;28;20075;-70
2022/12/03 06:00:26;;;;;;;57.35;27.90;;;4.50;99.90;;;;;;5034348;28;20025;-69
2022/12/03 06:02:52;;;;;;;56.78;27.17;;;4.50;99.90;;;;;;5028250;28;20444;-69
2022/12/03 06:05:18;;;;;;;63.97;28.65;;;4.40;99.90;;;;;;5032292;28;20101;-69
2022/12/03 06:07:45;;;;;;;56.50;26.27;;;4.40;99.90;;;;;;5027388;28;20025;-69
2022/12/03 06:10:13;;;;;;;62.90;28.67;;;4.40;99.90;;;;;;5029764;28;20393;-69
2022/12/03 06:12:38;;;;;;;56.97;26.90;;;4.50;99.90;;;;;;5027260;28;20099;-69
2022/12/03 06:15:05;;;;;;;55.83;25.55;;;4.50;99.90;;;;;;5031639;28;20041;-69
2022/12/03 06:17:31;;;;;;;57.40;27.60;;;4.50;99.90;;;;;;5030096;28;20049;-69
2022/12/03 06:19:56;;;;;;;57.40;26.55;;;4.60;99.90;;;;;;5024825;28;20079;-69
2022/12/03 06:22:22;;;;;;;55.28;25.85;;;4.50;99.90;;;;;;5028794;28;20025;-69
2022/12/03 06:24:49;;;;;;;54.67;26.83;;;4.50;99.90;;;;;;5027281;28;20026;-69
2022/12/03 06:27:15;;;;;;;57.15;26.85;;;4.40;99.90;;;;;;5031737;28;20017;-70
2022/12/03 06:29:40;;;;;;;56.78;28.20;;;4.50;99.90;;;;;;5027246;28;20030;-69
2022/12/03 06:32:06;;;;;;;56.25;26.45;;;4.50;99.90;;;;;;5025397;28;20385;-69
2022/12/03 06:34:32;;;;;;;58.25;27.52;;;4.50;99.90;;;;;;5032401;28;20071;-69
2022/12/03 06:36:58;;;;;;;59.15;25.92;;;4.60;99.90;;;;;;5030219;28;20103;-69
2022/12/03 06:39:23;;;;;;;54.25;25.88;;;4.50;99.90;;;;;;5026099;28;20043;-69
2022/12/03 06:41:49;;;;;;;58.38;25.67;;;4.60;99.90;;;;;;5029201;28;20022;-69
2022/12/03 06:44:15;;;;;;;55.30;26.27;;;4.60;99.90;;;;;;5022218;28;20061;-69
2022/12/03 06:46:41;;;;;;;57.85;26.33;;;4.60;99.90;;;;;;5027527;28;20104;-70
2022/12/03 06:49:08;;;;;;;54.35;27.85;;;4.60;99.90;;;;;;5028050;28;20069;-69
2022/12/03 06:51:37;;;;;;;57.95;27.75;;;4.50;99.90;;;;;;5031732;28;20025;-69
2022/12/03 06:54:03;;;;;;;56.33;27.60;;;4.50;99.90;;;;;;5030312;28;20025;-69
2022/12/03 06:56:30;;;;;;;52.63;27.08;;;4.40;99.90;;;;;;5024806;28;20425;-70
2022/12/03 06:58:55;;;;;;;58.78;27.70;;;4.50;99.90;;;;;;5029494;28;20466;-70
2022/12/03 07:01:21;;;;;;;55.20;26.58;;;4.50;99.90;;;;;;5032371;28;20047;-69
2022/12/03 07:03:47;;;;;;;57.55;26.70;;;4.60;99.90;;;;;;5030178;28;20474;-69
2022/12/03 07:06:12;;;;;;;49.35;23.92;;;4.50;99.90;;;;;;5023828;28;20036;-69
2022/12/03 07:08:38;;;;;;;55.22;26.95;;;4.60;99.90;;;;;;5026825;28;20111;-69
2022/12/03 07:11:04;;;;;;;56.28;25.60;;;4.70;99.90;;;;;;5028771;28;20451;-69
2022/12/03 07:13:30;;;;;;;49.95;26.08;;;4.70;99.90;;;;;;5031157;28;20439;-69
2022/12/03 07:15:55;;;;;;;52.97;26.33;;;4.60;99.90;;;;;;5026876;28;20017;-69
2022/12/03 07:18:21;;;;;;;56.20;26.27;;;4.60;99.90;;;;;;5033509;28;20029;-69
2022/12/03 07:20:46;;;;;;;51.90;25.05;;;4.60;99.90;;;;;;5030359;28;20394;-69
2022/12/03 07:23:12;;;;;;;54.45;24.98;;;4.60;99.90;;;;;;5024093;28;20016;-69
2022/12/03 07:25:37;;;;;;;52.42;25.52;;;4.60;99.90;;;;;;5029279;28;20436;-69
2022/12/03 07:28:03;;;;;;;56.50;27.50;;;4.50;99.90;;;;;;5029989;28;20034;-69
2022/12/03 07:30:29;;;;;;;61.72;27.95;;;4.40;99.90;;;;;;5040227;28;20052;-69
2022/12/03 07:32:54;;;;;;;55.00;26.55;;;4.50;99.90;;;;;;5024738;28;20463;-69
2022/12/03 07:35:20;;;;;;;58.72;25.33;;;4.50;99.90;;;;;;5033361;28;20064;-69
2022/12/03 07:37:46;;;;;;;61.85;26.92;;;4.50;99.90;;;;;;5027672;28;21026;-69
2022/12/03 07:40:12;;;;;;;59.50;28.25;;;4.60;99.90;;;;;;5023211;28;20026;-69
2022/12/03 07:42:38;;;;;;;50.38;25.35;;;4.50;99.90;;;;;;5025536;28;20104;-69
2022/12/03 07:45:04;;;;;;;58.38;27.27;;;4.60;99.90;;;;;;5029706;28;20474;-69
2022/12/03 07:47:29;;;;;;;55.13;26.92;;;4.40;99.90;;;;;;5032837;28;20473;-69
2022/12/03 07:49:55;;;;;;;58.20;26.98;;;4.50;99.90;;;;;;5026620;28;20025;-70
2022/12/03 07:52:20;;;;;;;57.65;27.67;;;4.50;99.90;;;;;;5026086;28;20057;-69
2022/12/03 07:54:46;;;;;;;58.53;26.52;;;4.40;99.90;;;;;;5035566;28;20020;-69
2022/12/03 07:57:12;;;;;;;59.17;27.70;;;4.40;99.90;;;;;;5026114;28;20040;-69
2022/12/03 07:59:37;;;;;;;53.33;24.98;;;4.50;99.90;;;;;;5029369;28;20104;-69
2022/12/03 08:02:03;;;;;;;52.63;23.83;;;4.40;99.90;;;;;;5027524;28;20032;-69
2022/12/03 08:04:29;;;;;;;48.80;23.83;;;4.40;99.90;;;;;;5023655;28;20076;-69
2022/12/03 08:06:54;;;;;;;53.03;25.58;;;4.40;99.90;;;;;;5025077;28;20104;-70
2022/12/03 08:09:20;;;;;;;53.03;23.92;;;4.50;99.90;;;;;;5031953;28;20068;-69
2022/12/03 08:11:49;;;;;;;55.75;24.05;;;4.50;99.90;;;;;;5022683;28;20537;-73
2022/12/03 08:14:17;;;;;;;51.63;24.13;;;4.40;99.90;;;;;;5026696;28;20029;-72
2022/12/03 08:16:45;;;;;;;52.30;23.35;;;4.50;99.90;;;;;;5027689;28;20827;-73
2022/12/03 08:19:16;;;;;;;55.20;24.15;;;4.50;99.90;;;;;;5020219;28;20092;-73
2022/12/03 08:21:42;;;;;;;55.08;25.00;;;4.60;99.90;;;;;;5023289;28;20113;-71
2022/12/03 08:24:16;;;;;;;52.97;24.90;;;4.60;99.90;;;;;;5028834;28;20053;-70
2022/12/03 08:26:43;;;;;;;55.75;23.73;;;4.60;99.90;;;;;;5024758;28;20136;-72
2022/12/03 08:29:18;;;;;;;54.42;25.83;;;4.60;99.90;;;;;;5020781;28;20026;-72
2022/12/03 08:31:48;;;;;;;60.78;25.95;;;4.70;99.90;;;;;;5024597;28;20497;-72
2022/12/03 08:34:16;;;;;;;59.95;27.60;;;4.60;99.90;;;;;;5025111;28;20608;-72
2022/12/03 08:36:42;;;;;;;56.72;26.20;;;4.60;99.90;;;;;;5027047;28;20036;-72
2022/12/03 08:39:27;;;;;;;59.10;27.23;;;4.70;99.90;;;;;;5029420;28;20120;-71
2022/12/03 08:42:41;;;;;;;57.65;26.48;;;4.80;99.90;;;;;;5024256;28;20681;-71
2022/12/03 08:45:30;;;;;;;54.40;24.42;;;4.60;99.90;;;;;;5024623;28;20072;-72
2022/12/03 08:48:01;;;;;;;56.08;26.23;;;4.70;99.90;;;;;;5041065;28;20045;-73
2022/12/03 08:50:34;;;;;;;59.75;27.23;;;4.60;99.90;;;;;;5024916;28;20484;-71
2022/12/03 08:53:19;;;;;;;55.65;26.70;;;4.60;99.90;;;;;;5028330;28;20029;-73
2022/12/03 08:55:52;;;;;;;63.15;27.55;;;4.80;99.90;;;;;;5028608;28;20367;-72
2022/12/03 08:58:31;;;;;;;68.00;28.50;;;4.70;99.90;;;;;;5026033;28;20033;-71
2022/12/03 09:01:15;;;;;;;60.95;27.27;;;4.80;99.90;;;;;;5032329;28;20021;-73
2022/12/03 09:03:53;;;;;;;59.45;26.60;;;4.80;99.90;;;;;;5021692;28;20029;-72
2022/12/03 09:06:19;;;;;;;67.40;27.73;;;4.80;99.90;;;;;;5028567;28;20034;-71
2022/12/03 09:08:45;;;;;;;62.75;26.63;;;4.70;99.90;;;;;;5030163;28;21533;-73
2022/12/03 09:11:11;;;;;;;62.60;27.38;;;4.60;99.90;;;;;;5027373;28;20022;-72
2022/12/03 09:13:37;;;;;;;60.17;27.23;;;4.70;99.90;;;;;;5032802;28;20041;-72
2022/12/03 09:16:03;;;;;;;63.97;27.60;;;4.60;99.90;;;;;;5024176;28;20037;-71
2022/12/03 09:18:28;;;;;;;67.13;28.67;;;4.70;99.90;;;;;;5025610;28;20065;-72
2022/12/03 09:20:55;;;;;;;59.80;26.73;;;4.70;99.90;;;;;;5029807;28;20014;-73
2022/12/03 09:23:21;;;;;;;67.22;28.95;;;4.80;99.90;;;;;;5029082;28;20040;-73
2022/12/03 09:25:46;;;;;;;65.32;27.20;;;4.80;99.90;;;;;;5031878;28;20029;-71
2022/12/03 09:28:12;;;;;;;60.03;25.77;;;4.90;99.90;;;;;;5033363;28;20028;-71
2022/12/03 09:30:37;;;;;;;59.55;27.05;;;4.80;99.90;;;;;;5028526;28;20030;-72
2022/12/03 09:33:03;;;;;;;59.80;25.15;;;4.80;99.90;;;;;;5028940;28;20095;-73
2022/12/03 09:35:29;;;;;;;54.97;24.13;;;4.80;99.90;;;;;;5024402;28;20100;-72
2022/12/03 09:37:54;;;;;;;58.10;26.35;;;4.80;99.90;;;;;;5029905;28;20401;-73
2022/12/03 09:40:20;;;;;;;60.83;26.45;;;4.70;99.90;;;;;;5032035;28;20076;-69
2022/12/03 09:42:46;;;;;;;51.53;24.52;;;4.80;99.90;;;;;;5023739;28;20488;-71
2022/12/03 09:45:14;;;;;;;58.08;25.55;;;4.80;99.90;;;;;;5027711;28;20025;-69
2022/12/03 09:47:46;;;;;;;54.58;25.23;;;4.80;99.90;;;;;;5028358;28;20386;-71
2022/12/03 09:50:20;;;;;;;65.18;27.95;;;4.70;99.90;;;;;;5030249;28;20026;-72
2022/12/03 09:52:48;;;;;;;55.42;25.33;;;4.70;99.90;;;;;;5025801;28;20026;-73
2022/12/03 09:55:17;;;;;;;53.90;24.75;;;4.60;99.90;;;;;;5033740;28;20030;-72
2022/12/03 09:57:43;;;;;;;55.63;24.88;;;4.80;99.90;;;;;;5026834;28;20402;-73
2022/12/03 10:00:17;;;;;;;56.15;24.33;;;4.80;99.90;;;;;;5032607;28;20403;-74
2022/12/03 10:02:44;;;;;;;56.25;25.45;;;5.00;99.90;;;;;;5026122;28;20044;-73
2022/12/03 10:05:10;;;;;;;54.03;24.73;;;5.10;99.90;;;;;;5027603;28;20079;-73
2022/12/03 10:07:36;;;;;;;52.05;23.05;;;5.10;99.90;;;;;;5033237;28;20401;-72
2022/12/03 10:10:03;;;;;;;55.20;24.88;;;5.10;99.90;;;;;;5030843;28;20029;-72
2022/12/03 10:12:28;;;;;;;53.03;24.77;;;5.00;99.90;;;;;;5026931;28;20060;-70
2022/12/03 10:14:54;;;;;;;51.05;24.92;;;5.00;99.90;;;;;;5027054;28;20064;-72
2022/12/03 10:17:20;;;;;;;52.83;24.65;;;5.20;99.90;;;;;;5029155;28;20052;-72
2022/12/03 10:19:46;;;;;;;52.15;23.48;;;5.20;99.90;;;;;;5022731;28;20108;-72
2022/12/03 10:22:11;;;;;;;51.05;22.38;;;5.20;99.90;;;;;;5024895;28;20121;-73
2022/12/03 10:24:37;;;;;;;49.67;22.52;;;5.10;99.90;;;;;;5022560;28;20044;-70
2022/12/03 10:27:21;;;;;;;47.47;21.10;;;5.00;99.90;;;;;;5025910;28;20072;-72
2022/12/03 10:29:59;;;;;;;54.92;22.85;;;4.90;99.90;;;;;;5018805;28;20033;-69
2022/12/03 10:32:40;;;;;;;53.67;22.67;;;5.00;99.90;;;;;;5025431;28;20089;-72
2022/12/03 10:35:13;;;;;;;51.42;22.50;;;4.90;99.90;;;;;;5027218;28;20028;-72
2022/12/03 10:38:01;;;;;;;50.05;22.83;;;4.90;99.90;;;;;;5032701;28;20092;-70
2022/12/03 10:40:33;;;;;;;47.70;21.38;;;4.90;99.90;;;;;;5026946;28;20036;-73
2022/12/03 10:43:18;;;;;;;54.88;24.27;;;4.80;99.90;;;;;;5030008;28;20075;-72
2022/12/03 10:46:02;;;;;;;57.17;23.27;;;5.00;99.90;;;;;;5035411;28;20573;-74
2022/12/03 10:48:27;;;;;;;54.33;22.60;;;5.10;99.90;;;;;;5024947;28;20021;-70
2022/12/03 10:50:59;;;;;;;51.03;22.80;;;5.20;99.90;;;;;;5025817;28;20091;-70
2022/12/03 10:53:29;;;;;;;49.10;21.77;;;5.30;99.90;;;;;;5028655;28;20026;-72
2022/12/03 10:55:58;;;;;;;51.75;22.75;;;5.20;99.90;;;;;;5028917;28;20068;-71
2022/12/03 10:58:29;;;;;;;52.03;23.73;;;5.10;99.90;;;;;;5021008;28;20494;-70
2022/12/03 11:00:57;;;;;;;54.75;23.95;;;5.20;99.90;;;;;;5027846;28;20444;-72
2022/12/03 11:03:43;;;;;;;52.58;23.27;;;5.20;99.90;;;;;;5004236;28;21343;-73
2022/12/03 11:06:14;;;;;;;45.60;22.60;;;5.10;99.90;;;;;;5028396;28;20026;-69
2022/12/03 11:08:42;;;;;;;56.78;24.27;;;5.10;99.90;;;;;;5026545;28;20354;-72
2022/12/03 11:11:17;;;;;;;52.08;23.45;;;5.10;99.90;;;;;;5026648;28;20025;-70
2022/12/03 11:13:47;;;;;;;50.38;22.75;;;5.30;99.90;;;;;;5025258;28;20036;-70
2022/12/03 11:16:33;;;;;;;50.63;24.05;;;5.30;99.90;;;;;;5021904;28;20140;-70
2022/12/03 11:19:01;;;;;;;55.30;24.77;;;5.10;99.90;;;;;;5027688;28;20045;-71
2022/12/03 11:21:27;;;;;;;55.50;24.38;;;5.00;99.90;;;;;;5028732;28;20017;-70
2022/12/03 11:23:52;;;;;;;53.22;23.75;;;5.00;99.90;;;;;;5024831;28;20367;-72
2022/12/03 11:26:38;;;;;;;50.95;22.88;;;5.00;99.90;;;;;;5027430;28;20033;-70
2022/12/03 11:29:12;;;;;;;50.50;22.70;;;5.10;99.90;;;;;;5018521;28;20503;-69
2022/12/03 11:31:46;;;;;;;57.60;24.02;;;5.20;99.90;;;;;;5026433;28;20378;-70
2022/12/03 11:34:17;;;;;;;49.05;23.67;;;5.30;99.90;;;;;;5024684;28;20033;-69
2022/12/03 11:37:11;;;;;;;66.18;24.65;;;5.40;99.90;;;;;;5023496;28;20025;-68
2022/12/03 11:39:49;;;;;;;53.10;24.10;;;5.30;99.90;;;;;;5026142;28;20103;-69
2022/12/03 11:42:26;;;;;;;55.38;25.50;;;5.10;99.90;;;;;;5024743;28;20040;-70
2022/12/03 11:45:04;;;;;;;53.33;25.08;;;5.30;99.90;;;;;;5023805;28;20040;-68
2022/12/03 11:47:38;;;;;;;49.47;24.45;;;5.30;99.90;;;;;;5025500;28;20053;-69
2022/12/03 11:50:21;;;;;;;48.10;22.20;;;5.10;99.90;;;;;;5025309;28;20124;-69
2022/12/03 11:52:54;;;;;;;53.65;23.52;;;5.20;99.90;;;;;;5019428;28;20017;-69
2022/12/03 11:55:29;;;;;;;48.80;23.58;;;5.20;99.90;;;;;;5023628;28;20034;-70
2022/12/03 11:58:04;;;;;;;54.42;23.85;;;5.30;99.90;;;;;;5023120;28;20065;-69
2022/12/03 12:00:30;;;;;;;51.72;23.40;;;5.40;99.90;;;;;;5028867;28;20112;-68
2022/12/03 12:02:57;;;;;;;55.28;25.67;;;5.40;99.90;;;;;;5030087;28;20449;-69
2022/12/03 12:05:24;;;;;;;53.92;24.63;;;5.50;99.90;;;;;;5028607;28;20025;-68
2022/12/03 12:07:51;;;;;;;54.85;25.63;;;5.50;99.90;;;;;;5029864;28;20025;-68
2022/12/03 12:10:41;;;;;;;50.55;23.80;;;5.50;99.90;;;;;;5026039;28;20121;-68
2022/12/03 12:13:29;;;;;;;54.25;24.42;;;5.50;99.90;;;;;;5023728;28;20022;-68
2022/12/03 12:15:59;;;;;;;57.80;23.75;;;5.50;99.90;;;;;;5031123;28;20021;-69
2022/12/03 12:18:50;;;;;;;48.45;25.23;;;5.60;99.90;;;;;;5031223;28;20112;-69
2022/12/03 12:21:48;;;;;;;49.72;24.58;;;5.50;99.90;;;;;;5033495;28;20050;-70
2022/12/03 12:24:44;;;;;;;52.05;25.58;;;5.50;99.90;;;;;;5027612;28;20022;-69
2022/12/03 12:27:30;;;;;;;47.13;23.90;;;5.50;99.90;;;;;;5028569;28;20033;-68
2022/12/03 12:29:58;;;;;;;50.10;22.90;;;5.60;99.90;;;;;;5025074;28;20025;-69
2022/12/03 12:32:51;;;;;;;56.28;24.63;;;5.70;99.90;;;;;;5029283;28;20025;-68
2022/12/03 12:35:22;;;;;;;52.53;24.48;;;5.70;99.90;;;;;;5030713;28;20025;-68
2022/12/03 12:37:54;;;;;;;55.63;26.57;;;5.70;99.90;;;;;;5024699;28;20117;-68
2022/12/03 12:40:23;;;;;;;56.30;27.58;;;5.70;99.90;;;;;;5029757;28;20029;-69
2022/12/03 12:42:53;;;;;;;54.22;27.42;;;5.60;99.90;;;;;;5024076;28;20219;-67
2022/12/03 12:45:22;;;;;;;56.92;27.50;;;5.40;99.90;;;;;;5022931;28;20042;-68
2022/12/03 12:48:16;;;;;;;54.25;27.88;;;5.40;99.90;;;;;;5023892;28;20478;-69
2022/12/03 12:50:44;;;;;;;55.85;26.25;;;5.40;99.90;;;;;;5053853;28;20393;-68
2022/12/03 12:53:31;;;;;;;57.53;26.63;;;5.40;99.90;;;;;;5026597;28;20482;-68
2022/12/03 12:56:10;;;;;;;57.28;27.15;;;5.50;99.90;;;;;;5025914;28;20474;-69
2022/12/03 12:58:35;;;;;;;53.60;25.00;;;5.50;99.90;;;;;;5028934;28;20105;-68
2022/12/03 13:01:10;;;;;;;57.40;25.52;;;5.40;99.90;;;;;;5033582;28;20116;-69
2022/12/03 13:03:37;;;;;;;54.65;26.25;;;5.40;99.90;;;;;;5030177;28;20152;-68